createdAt,value
2016-12-20T00:01:07.254Z,47.2
2016-12-20T00:02:17.140Z,47.3
2016-12-20T00:03:26.376Z,47.49
2016-12-20T00:04:35.302Z,47.31
2016-12-20T00:05:44.593Z,47.3
2016-12-20T00:06:54.526Z,47
2016-12-20T00:08:03.772Z,47.2
2016-12-20T00:09:13.342Z,47.39
2016-12-20T00:10:22.908Z,47
2016-12-20T00:11:32.260Z,47.3
2016-12-20T00:12:41.221Z,47.2
2016-12-20T00:13:50.473Z,47.2
2016-12-20T00:15:00.044Z,47.2
2016-12-20T00:16:09.353Z,47.39
2016-12-20T00:17:18.605Z,47.39
2016-12-20T00:18:27.859Z,47.39
2016-12-20T00:19:37.502Z,47.3
2016-12-20T00:20:46.764Z,47.49
2016-12-20T00:21:56.344Z,47.58
2016-12-20T00:23:05.596Z,47.49
2016-12-20T00:24:14.860Z,47.87
2016-12-20T00:25:24.424Z,47.87
2016-12-20T00:26:33.691Z,47.68
2016-12-20T00:27:42.952Z,47.77
2016-12-20T00:28:52.197Z,47.68
2016-12-20T00:30:01.777Z,47.77
2016-12-20T00:31:11.034Z,47.68
2016-12-20T00:32:20.973Z,47.97
2016-12-20T00:33:30.549Z,47.77
2016-12-20T00:34:40.477Z,47.87
2016-12-20T00:35:50.356Z,47.49
2016-12-20T00:36:59.975Z,47.87
2016-12-20T00:38:09.542Z,47.77
2016-12-20T00:39:19.111Z,48.16
2016-12-20T00:40:28.434Z,48.16
2016-12-20T00:41:37.685Z,47.49
2016-12-20T00:42:47.278Z,47.68
2016-12-20T00:43:56.895Z,47.87
2016-12-20T00:45:06.164Z,47.68
2016-12-20T00:46:15.434Z,47.58
2016-12-20T00:47:24.389Z,47.87
2016-12-20T00:48:33.327Z,47.58
2016-12-20T00:49:43.206Z,47.68
2016-12-20T00:50:52.794Z,47.68
2016-12-20T00:52:02.036Z,47.49
2016-12-20T00:53:11.595Z,47.58
2016-12-20T00:54:20.854Z,47.87
2016-12-20T00:55:30.493Z,47.97
2016-12-20T00:56:40.119Z,48.35
2016-12-20T00:57:49.055Z,48.16
2016-12-20T00:58:58.700Z,48.25
2016-12-20T01:00:07.968Z,48.16
2016-12-20T01:01:17.961Z,48.16
2016-12-20T01:02:27.215Z,48.16
2016-12-20T01:03:36.464Z,48.25
2016-12-20T01:04:46.039Z,48.16
2016-12-20T01:05:54.973Z,48.25
2016-12-20T01:07:04.536Z,48.25
2016-12-20T01:08:14.516Z,48.25
2016-12-20T01:09:24.079Z,48.07
2016-12-20T01:10:33.345Z,48.45
2016-12-20T01:11:42.966Z,48.35
2016-12-20T01:12:52.558Z,48.16
2016-12-20T01:14:02.291Z,48.25
2016-12-20T01:15:12.164Z,48.45
2016-12-20T01:16:21.114Z,48.45
2016-12-20T01:17:30.974Z,48.16
2016-12-20T01:18:40.626Z,48.45
2016-12-20T01:19:49.947Z,48.54
2016-12-20T01:20:59.520Z,48.07
2016-12-20T01:22:09.072Z,48.16
2016-12-20T01:23:18.701Z,48.45
2016-12-20T01:24:28.301Z,48.45
2016-12-20T01:25:37.566Z,48.45
2016-12-20T01:26:47.142Z,48.35
2016-12-20T01:27:56.701Z,48.25
2016-12-20T01:29:05.937Z,48.25
2016-12-20T01:30:15.931Z,48.25
2016-12-20T01:31:25.207Z,48.45
2016-12-20T01:32:34.765Z,48.16
2016-12-20T01:33:44.016Z,48.35
2016-12-20T01:34:52.967Z,48.45
2016-12-20T01:36:02.276Z,48.25
2016-12-20T01:37:11.829Z,48.25
2016-12-20T01:38:21.157Z,48.35
2016-12-20T01:39:31.038Z,48.13
2016-12-20T01:40:40.306Z,48.45
2016-12-20T01:41:49.237Z,48.23
2016-12-20T01:42:58.563Z,48.07
2016-12-20T01:44:07.885Z,48.45
2016-12-20T01:45:17.122Z,48.33
2016-12-20T01:46:26.107Z,48.71
2016-12-20T01:47:35.057Z,48.23
2016-12-20T01:48:44.737Z,48.25
2016-12-20T01:49:54.347Z,48.33
2016-12-20T01:51:03.599Z,48.25
2016-12-20T01:52:12.545Z,48.16
2016-12-20T01:53:21.504Z,48.33
2016-12-20T01:54:30.751Z,48.43
2016-12-20T01:55:40.017Z,48.23
2016-12-20T01:56:49.598Z,48.35
2016-12-20T01:57:58.546Z,48.71
2016-12-20T01:59:07.476Z,48.43
2016-12-20T02:00:16.893Z,48.61
2016-12-20T02:01:26.447Z,48.43
2016-12-20T02:02:36.005Z,48.61
2016-12-20T02:03:44.958Z,48.52
2016-12-20T02:04:54.320Z,48.33
2016-12-20T02:06:03.896Z,48.43
2016-12-20T02:07:13.147Z,48.52
2016-12-20T02:08:22.130Z,48.23
2016-12-20T02:09:32.008Z,48.52
2016-12-20T02:10:41.887Z,48.61
2016-12-20T02:11:51.140Z,48.23
2016-12-20T02:13:00.788Z,48.52
2016-12-20T02:14:09.428Z,48.33
2016-12-20T02:15:18.981Z,48.33
2016-12-20T02:16:28.258Z,48.33
2016-12-20T02:17:37.831Z,48.33
2016-12-20T02:18:47.087Z,48.23
2016-12-20T02:19:56.703Z,48.33
2016-12-20T02:21:05.947Z,48.61
2016-12-20T02:22:15.540Z,48.23
2016-12-20T02:23:24.776Z,48.43
2016-12-20T02:24:34.356Z,48.23
2016-12-20T02:25:43.903Z,48.13
2016-12-20T02:26:53.836Z,48.43
2016-12-20T02:28:03.402Z,48.23
2016-12-20T02:29:13.370Z,48.43
2016-12-20T02:30:22.326Z,48.23
2016-12-20T02:31:31.887Z,48.61
2016-12-20T02:32:41.729Z,48.43
2016-12-20T02:33:50.977Z,48.43
2016-12-20T02:35:00.526Z,48.52
2016-12-20T02:36:10.057Z,48.23
2016-12-20T02:37:19.311Z,48.13
2016-12-20T02:38:29.259Z,48.52
2016-12-20T02:39:38.517Z,48.43
2016-12-20T02:40:47.780Z,48.52
2016-12-20T02:41:57.337Z,48.71
2016-12-20T02:43:07.206Z,48.61
2016-12-20T02:44:16.558Z,48.33
2016-12-20T02:45:26.113Z,48.81
2016-12-20T02:46:35.677Z,48.52
2016-12-20T02:47:45.545Z,48.52
2016-12-20T02:48:55.145Z,48.61
2016-12-20T02:50:04.391Z,48.33
2016-12-20T02:51:13.326Z,48.33
2016-12-20T02:52:22.298Z,48.52
2016-12-20T02:53:31.852Z,48.61
2016-12-20T02:54:41.777Z,48.23
2016-12-20T02:55:51.047Z,48.23
2016-12-20T02:57:00.616Z,48.04
2016-12-20T02:58:10.181Z,48.52
2016-12-20T02:59:19.739Z,48.61
2016-12-20T03:00:29.624Z,48.33
2016-12-20T03:01:38.708Z,48.23
2016-12-20T03:02:48.365Z,48.16
2016-12-20T03:03:57.309Z,48.23
2016-12-20T03:05:06.254Z,48.33
2016-12-20T03:06:16.126Z,48.61
2016-12-20T03:07:26.006Z,48.13
2016-12-20T03:08:35.616Z,48.52
2016-12-20T03:09:45.168Z,48.61
2016-12-20T03:10:54.093Z,48.61
2016-12-20T03:12:03.656Z,48.61
2016-12-20T03:13:12.294Z,48.43
2016-12-20T03:14:21.867Z,48.33
2016-12-20T03:15:31.418Z,48.52
2016-12-20T03:16:41.308Z,48.43
2016-12-20T03:17:50.579Z,48.23
2016-12-20T03:19:00.135Z,48.52
2016-12-20T03:20:10.007Z,48.61
2016-12-20T03:21:19.579Z,48.23
2016-12-20T03:22:28.861Z,48.71
2016-12-20T03:23:38.418Z,48.33
2016-12-20T03:24:47.874Z,48.43
2016-12-20T03:25:57.129Z,48.61
2016-12-20T03:27:06.691Z,48.61
2016-12-20T03:28:16.311Z,48.33
2016-12-20T03:29:25.868Z,48.13
2016-12-20T03:30:35.121Z,48.52
2016-12-20T03:31:44.098Z,48.81
2016-12-20T03:32:53.666Z,48.43
2016-12-20T03:34:02.628Z,48.52
2016-12-20T03:35:12.698Z,48.52
2016-12-20T03:36:22.565Z,48.52
2016-12-20T03:37:31.810Z,48.81
2016-12-20T03:38:41.378Z,48.71
2016-12-20T03:39:50.932Z,48.61
2016-12-20T03:41:00.268Z,48.52
2016-12-20T03:42:10.210Z,48.43
2016-12-20T03:43:20.077Z,48.81
2016-12-20T03:44:29.018Z,48.9
2016-12-20T03:45:38.868Z,49
2016-12-20T03:46:48.216Z,48.71
2016-12-20T03:47:57.162Z,48.81
2016-12-20T03:49:07.036Z,48.81
2016-12-20T03:50:16.390Z,48.81
2016-12-20T03:51:26.453Z,48.33
2016-12-20T03:52:35.690Z,48.52
2016-12-20T03:53:45.266Z,48.23
2016-12-20T03:54:55.224Z,48.61
2016-12-20T03:56:04.593Z,48.33
2016-12-20T03:57:14.257Z,48.23
2016-12-20T03:58:23.825Z,48.33
2016-12-20T03:59:33.722Z,48.61
2016-12-20T04:00:43.276Z,48.23
2016-12-20T04:01:51.907Z,48.43
2016-12-20T04:03:01.457Z,48.25
2016-12-20T04:04:10.710Z,48.23
2016-12-20T04:05:20.095Z,48.33
2016-12-20T04:06:29.149Z,48.07
2016-12-20T04:07:38.757Z,48.52
2016-12-20T04:08:48.626Z,48.13
2016-12-20T04:09:58.259Z,48.33
2016-12-20T04:11:08.165Z,48.04
2016-12-20T04:12:17.130Z,48.13
2016-12-20T04:13:26.389Z,48.23
2016-12-20T04:14:36.256Z,48.13
2016-12-20T04:15:45.487Z,48.13
2016-12-20T04:16:54.593Z,48.13
2016-12-20T04:18:03.855Z,48.23
2016-12-20T04:19:13.426Z,48.13
2016-12-20T04:20:23.108Z,48.43
2016-12-20T04:21:32.438Z,48.45
2016-12-20T04:22:41.698Z,48.25
2016-12-20T04:23:51.268Z,48.25
2016-12-20T04:25:00.217Z,48.07
2016-12-20T04:26:09.650Z,47.97
2016-12-20T04:27:18.604Z,47.87
2016-12-20T04:28:27.913Z,47.49
2016-12-20T04:29:37.308Z,47.58
2016-12-20T04:30:47.231Z,47.3
2016-12-20T04:31:56.788Z,47.3
2016-12-20T04:33:06.061Z,47.39
2016-12-20T04:34:16.026Z,47.2
2016-12-20T04:35:25.335Z,47.3
2016-12-20T04:36:34.965Z,47.3
2016-12-20T04:37:44.367Z,47.22
2016-12-20T04:38:53.303Z,47.22
2016-12-20T04:40:02.818Z,47.3
2016-12-20T04:41:12.782Z,47.03
2016-12-20T04:42:22.037Z,47.03
2016-12-20T04:43:31.927Z,47.13
2016-12-20T04:44:41.173Z,47.13
2016-12-20T04:45:50.442Z,47.13
2016-12-20T04:46:59.723Z,47.13
2016-12-20T04:48:08.976Z,46.84
2016-12-20T04:49:18.367Z,46.45
2016-12-20T04:50:27.727Z,46.74
2016-12-20T04:51:36.668Z,46.36
2016-12-20T04:52:46.263Z,46.36
2016-12-20T04:53:55.837Z,46.93
2016-12-20T04:55:05.439Z,46.84
2016-12-20T04:56:15.157Z,46.55
2016-12-20T04:57:24.453Z,46.45
2016-12-20T04:58:34.017Z,46.64
2016-12-20T04:59:42.972Z,46.45
2016-12-20T05:00:52.705Z,46.45
2016-12-20T05:02:02.320Z,46.55
2016-12-20T05:03:11.578Z,46.64
2016-12-20T05:04:20.850Z,46.64
2016-12-20T05:05:30.859Z,46.64
2016-12-20T05:06:40.735Z,46.64
2016-12-20T05:07:50.616Z,46.36
2016-12-20T05:08:59.551Z,46.64
2016-12-20T05:10:08.855Z,46.26
2016-12-20T05:11:18.116Z,46.55
2016-12-20T05:12:27.983Z,46.36
2016-12-20T05:13:36.910Z,46.36
2016-12-20T05:14:46.480Z,46.45
2016-12-20T05:15:56.676Z,46.74
2016-12-20T05:17:06.248Z,46.45
2016-12-20T05:18:15.503Z,46.64
2016-12-20T05:19:25.173Z,46.93
2016-12-20T05:20:35.056Z,47.03
2016-12-20T05:21:44.437Z,46.93
2016-12-20T05:22:53.998Z,46.84
2016-12-20T05:24:03.565Z,46.74
2016-12-20T05:25:13.487Z,46.74
2016-12-20T05:26:23.076Z,47.03
2016-12-20T05:27:32.878Z,46.74
2016-12-20T05:28:42.983Z,46.55
2016-12-20T05:29:52.708Z,46.93
2016-12-20T05:31:02.631Z,47.13
2016-12-20T05:32:12.243Z,47.13
2016-12-20T05:33:21.806Z,46.84
2016-12-20T05:34:31.728Z,47.22
2016-12-20T05:35:40.995Z,47.13
2016-12-20T05:36:49.957Z,47.22
2016-12-20T05:37:59.512Z,47.22
2016-12-20T05:39:09.067Z,47.41
2016-12-20T05:40:18.331Z,46.84
2016-12-20T05:41:27.991Z,47.22
2016-12-20T05:42:37.360Z,47.22
2016-12-20T05:43:46.639Z,47.13
2016-12-20T05:44:56.186Z,47.22
2016-12-20T05:46:05.757Z,47.31
2016-12-20T05:47:15.374Z,47.31
2016-12-20T05:48:25.153Z,47.22
2016-12-20T05:49:35.074Z,47.22
2016-12-20T05:50:44.634Z,46.93
2016-12-20T05:51:53.878Z,47.41
2016-12-20T05:53:03.455Z,47.22
2016-12-20T05:54:13.398Z,47.31
2016-12-20T05:55:23.277Z,47.89
2016-12-20T05:56:32.757Z,48.47
2016-12-20T05:57:42.715Z,48.47
2016-12-20T05:58:51.406Z,48.47
2016-12-20T06:00:00.969Z,48.38
2016-12-20T06:01:10.645Z,48.47
2016-12-20T06:02:20.274Z,48.85
2016-12-20T06:03:30.194Z,49.63
2016-12-20T06:04:40.193Z,49.72
2016-12-20T06:05:56.856Z,49.82
2016-12-20T06:06:54.600Z,50.78
2016-12-20T06:07:19.056Z,50.68
2016-12-20T06:08:40.329Z,50.68
2016-12-20T06:09:29.676Z,50.68
2016-12-20T06:10:52.074Z,49.72
2016-12-20T06:12:14.481Z,50.1
2016-12-20T06:13:36.456Z,50.1
2016-12-20T06:14:58.367Z,50.2
2016-12-20T06:16:20.476Z,50.78
2016-12-20T06:17:41.794Z,50.01
2016-12-20T06:19:03.697Z,49.53
2016-12-20T06:20:24.977Z,50.97
2016-12-20T06:21:46.866Z,51.17
2016-12-20T06:23:08.772Z,51.55
2016-12-20T06:24:30.244Z,51.45
2016-12-20T06:25:51.141Z,52.12
2016-12-20T06:35:20.418Z,50.04
2016-12-20T06:36:42.333Z,0
2016-12-20T06:38:04.412Z,0
2016-12-20T06:39:26.177Z,0
2016-12-20T06:40:48.447Z,0
2016-12-20T06:42:10.203Z,0
2016-12-20T06:43:32.276Z,0
2016-12-20T06:44:54.344Z,0
2016-12-20T06:46:16.547Z,0
2016-12-20T06:47:38.637Z,0
2016-12-20T06:49:00.745Z,0
2016-12-20T06:50:22.674Z,0
2016-12-20T06:51:45.120Z,0
2016-12-20T06:53:07.069Z,0
2016-12-20T06:54:28.849Z,0
2016-12-20T06:55:50.774Z,0
2016-12-20T06:57:12.280Z,0
2016-12-20T06:58:34.545Z,0
2016-12-20T06:59:56.308Z,0
2016-12-20T07:01:17.571Z,0
2016-12-20T07:02:39.155Z,0
2016-12-20T07:04:01.555Z,0
2016-12-20T07:05:23.439Z,0
2016-12-20T07:06:45.784Z,0
2016-12-20T07:08:07.583Z,0
2016-12-20T07:09:30.074Z,0
2016-12-20T07:10:52.169Z,0
2016-12-20T07:12:14.642Z,0
2016-12-20T07:13:36.441Z,0
2016-12-20T07:14:58.135Z,0
2016-12-20T07:16:20.217Z,0
2016-12-20T07:17:42.165Z,0
2016-12-20T07:19:04.247Z,0
2016-12-20T07:20:26.423Z,0
2016-12-20T07:21:48.304Z,0
2016-12-20T07:23:10.771Z,0
2016-12-20T07:24:32.865Z,0
2016-12-20T07:25:54.732Z,0
2016-12-20T07:27:16.614Z,0
2016-12-20T07:28:38.097Z,0
2016-12-20T07:29:59.603Z,0
2016-12-20T07:31:21.405Z,0
2016-12-20T07:32:43.389Z,0
2016-12-20T07:34:05.494Z,0
2016-12-20T07:35:27.373Z,0
2016-12-20T07:36:49.481Z,0
2016-12-20T07:38:11.347Z,0
2016-12-20T07:39:32.823Z,0
2016-12-20T07:40:54.995Z,0
2016-12-20T07:42:16.472Z,0
2016-12-20T07:43:38.294Z,0
2016-12-20T07:45:00.117Z,0
2016-12-20T07:46:21.588Z,0
2016-12-20T07:47:43.716Z,0
2016-12-20T07:49:05.554Z,0
2016-12-20T07:50:27.814Z,0
2016-12-20T07:51:49.658Z,0
2016-12-20T07:53:11.462Z,0
2016-12-20T07:54:32.624Z,0
2016-12-20T07:55:54.424Z,0
2016-12-20T07:57:15.988Z,0
2016-12-20T07:58:37.704Z,0
2016-12-20T07:59:59.469Z,0
2016-12-20T08:01:21.561Z,0
2016-12-20T08:02:43.818Z,0
2016-12-20T08:04:05.954Z,0
2016-12-20T08:05:28.317Z,0
2016-12-20T08:06:50.440Z,0
2016-12-20T08:08:12.542Z,0
2016-12-20T08:09:34.732Z,0
2016-12-20T08:10:57.243Z,0
2016-12-20T08:12:19.027Z,0
2016-12-20T08:13:41.180Z,0
2016-12-20T08:15:02.647Z,0
2016-12-20T08:16:24.723Z,0
2016-12-20T08:17:46.189Z,0
2016-12-20T08:19:08.072Z,0
2016-12-20T08:20:30.223Z,0
2016-12-20T08:21:52.322Z,0
2016-12-20T08:23:13.867Z,0
2016-12-20T08:24:35.703Z,0
2016-12-20T08:25:57.900Z,0
2016-12-20T08:27:19.467Z,0
2016-12-20T08:28:41.377Z,0
2016-12-20T08:30:02.308Z,0
2016-12-20T08:31:24.831Z,0
2016-12-20T08:32:46.623Z,0
2016-12-20T08:34:08.191Z,0
2016-12-20T08:35:30.615Z,0
2016-12-20T08:36:52.712Z,0
2016-12-20T08:38:14.793Z,0
2016-12-20T08:39:36.678Z,0
2016-12-20T08:40:58.457Z,0
2016-12-20T08:42:20.560Z,0
2016-12-20T08:43:42.502Z,0
2016-12-20T08:45:05.049Z,0
2016-12-20T08:46:27.527Z,0
2016-12-20T08:47:49.311Z,0
2016-12-20T08:49:11.585Z,0
2016-12-20T08:50:33.692Z,0
2016-12-20T08:51:55.507Z,0
2016-12-20T08:53:16.968Z,0
2016-12-20T08:54:39.112Z,0
2016-12-20T08:56:00.915Z,0
2016-12-20T08:57:23.040Z,0
2016-12-20T08:58:45.164Z,0
2016-12-20T09:00:06.675Z,0
2016-12-20T09:01:28.352Z,0
2016-12-20T09:02:50.443Z,0
2016-12-20T09:04:12.553Z,0
2016-12-20T09:06:05.826Z,0
2016-12-20T09:07:27.285Z,0
2016-12-20T09:08:49.438Z,0
2016-12-20T09:10:11.197Z,0
2016-12-20T09:11:33.108Z,0
2016-12-20T09:12:55.222Z,0
2016-12-20T09:14:17.444Z,0
2016-12-20T09:15:39.710Z,0
2016-12-20T09:17:01.182Z,0
2016-12-20T09:18:23.357Z,0
2016-12-20T09:19:45.824Z,0
2016-12-20T09:21:08.216Z,0
2016-12-20T09:22:30.419Z,0
2016-12-20T09:23:52.592Z,0
2016-12-20T09:25:15.015Z,0
2016-12-20T09:26:37.224Z,0
2016-12-20T09:27:58.376Z,0
2016-12-20T09:29:19.906Z,0
2016-12-20T09:30:42.026Z,0
2016-12-20T09:32:03.910Z,0
2016-12-20T09:33:26.025Z,0
2016-12-20T09:34:48.431Z,0
2016-12-20T09:36:10.508Z,0
2016-12-20T09:37:32.288Z,0
2016-12-20T09:38:54.455Z,0
2016-12-20T09:40:16.289Z,0
2016-12-20T09:41:38.555Z,0
2016-12-20T09:43:00.346Z,0
2016-12-20T09:44:22.105Z,0
2016-12-20T09:45:43.879Z,0
2016-12-20T09:47:05.990Z,0
2016-12-20T09:48:28.192Z,0
2016-12-20T09:49:50.576Z,0
2016-12-20T09:51:12.758Z,0
2016-12-20T09:52:35.155Z,0
2016-12-20T09:53:57.003Z,0
2016-12-20T09:55:19.196Z,0
2016-12-20T09:56:41.267Z,0
2016-12-20T09:58:03.349Z,0
2016-12-20T09:59:25.797Z,0
2016-12-20T10:00:48.328Z,0
2016-12-20T10:02:10.856Z,0
2016-12-20T10:03:32.641Z,0
2016-12-20T10:04:55.375Z,0
2016-12-20T10:06:17.141Z,0
2016-12-20T10:07:39.517Z,0
2016-12-20T10:09:01.586Z,0
2016-12-20T10:10:23.996Z,0
2016-12-20T10:11:45.457Z,0
2016-12-20T10:13:06.898Z,0
2016-12-20T10:14:29.261Z,0
2016-12-20T10:15:51.466Z,0
2016-12-20T10:17:13.618Z,0
2016-12-20T10:18:35.537Z,0
2016-12-20T10:19:57.106Z,0
2016-12-20T10:21:19.474Z,0
2016-12-20T10:22:41.578Z,0
2016-12-20T10:24:03.378Z,0
2016-12-20T10:25:25.821Z,0
2016-12-20T10:26:47.896Z,0
2016-12-20T10:28:09.997Z,0
2016-12-20T10:29:30.823Z,0
2016-12-20T10:30:52.280Z,0
2016-12-20T10:32:14.262Z,0
2016-12-20T10:33:36.386Z,0
2016-12-20T10:34:57.809Z,0
2016-12-20T10:36:19.896Z,0
2016-12-20T10:37:42.167Z,0
2016-12-20T10:39:04.568Z,0
2016-12-20T10:40:26.650Z,0
2016-12-20T10:41:48.500Z,0
2016-12-20T10:43:10.039Z,0
2016-12-20T10:44:32.102Z,0
2016-12-20T10:45:53.869Z,0
2016-12-20T10:47:16.267Z,0
2016-12-20T10:48:38.667Z,0
2016-12-20T10:50:00.127Z,0
2016-12-20T10:51:22.343Z,0
2016-12-20T10:52:44.116Z,0
2016-12-20T10:54:06.200Z,0
2016-12-20T10:55:28.603Z,0
2016-12-20T10:56:51.140Z,0
2016-12-20T10:58:12.981Z,0
2016-12-20T10:59:35.058Z,0
2016-12-20T11:00:57.256Z,0
2016-12-20T11:02:19.321Z,0
2016-12-20T11:03:41.474Z,0
2016-12-20T11:05:03.236Z,0
2016-12-20T11:06:25.017Z,0
2016-12-20T11:07:47.410Z,0
2016-12-20T11:09:08.916Z,0
2016-12-20T11:10:30.996Z,0
2016-12-20T11:11:52.767Z,0
2016-12-20T11:13:15.166Z,0
2016-12-20T11:14:37.569Z,0
2016-12-20T11:15:59.068Z,0
2016-12-20T11:17:20.829Z,0
2016-12-20T11:18:42.306Z,0
2016-12-20T11:20:04.087Z,0
2016-12-20T11:21:25.989Z,0
2016-12-20T11:22:48.376Z,0
2016-12-20T11:24:10.477Z,0
2016-12-20T11:25:32.244Z,0
2016-12-20T11:26:54.982Z,0
2016-12-20T11:28:17.400Z,0
2016-12-20T11:29:39.196Z,0
2016-12-20T11:31:01.329Z,0
2016-12-20T11:32:23.499Z,0
2016-12-20T11:33:45.583Z,0
2016-12-20T11:35:08.037Z,0
2016-12-20T11:36:30.445Z,0
2016-12-20T11:37:52.357Z,0
2016-12-20T11:39:14.038Z,0
2016-12-20T11:40:35.941Z,0
2016-12-20T11:41:57.832Z,0
2016-12-20T11:43:19.928Z,0
2016-12-20T11:44:41.022Z,0
2016-12-20T11:46:02.315Z,0
2016-12-20T11:47:23.890Z,0
2016-12-20T11:48:45.233Z,0
2016-12-20T11:50:06.579Z,0
2016-12-20T11:51:28.165Z,0
2016-12-20T11:52:49.156Z,0
2016-12-20T11:54:11.046Z,0
2016-12-20T11:55:32.664Z,0
2016-12-20T11:56:53.928Z,0
2016-12-20T11:58:15.494Z,0
2016-12-20T11:59:37.065Z,0
2016-12-20T12:00:59.150Z,0
2016-12-20T12:02:20.752Z,0
2016-12-20T12:03:42.681Z,0
2016-12-20T12:05:04.663Z,0
2016-12-20T12:06:26.565Z,0
2016-12-20T12:07:48.507Z,0
2016-12-20T12:09:10.223Z,0
2016-12-20T12:10:31.519Z,0
2016-12-20T12:11:53.119Z,0
2016-12-20T12:13:14.392Z,0
2016-12-20T12:14:35.386Z,0
2016-12-20T12:15:57.324Z,0
2016-12-20T12:17:18.655Z,0
2016-12-20T12:18:40.571Z,0
2016-12-20T12:20:02.175Z,0
2016-12-20T12:21:24.085Z,0
2016-12-20T12:22:45.686Z,0
2016-12-20T12:24:07.257Z,0
2016-12-20T12:25:28.852Z,0
2016-12-20T12:26:50.369Z,0
2016-12-20T12:28:12.207Z,0
2016-12-20T12:29:34.099Z,0
2016-12-20T12:30:56.003Z,0
2016-12-20T12:32:17.747Z,0
2016-12-20T12:33:39.771Z,0
2016-12-20T12:35:01.193Z,0
2016-12-20T12:36:22.765Z,0
2016-12-20T12:37:44.803Z,0
2016-12-20T12:39:06.503Z,0
2016-12-20T12:40:28.487Z,0
2016-12-20T12:41:50.103Z,0
2016-12-20T12:43:11.691Z,0
2016-12-20T12:44:33.312Z,0
2016-12-20T12:45:55.408Z,0
2016-12-20T12:47:17.322Z,0
2016-12-20T12:48:38.916Z,0
2016-12-20T12:50:00.187Z,0
2016-12-20T12:51:22.147Z,0
2016-12-20T12:52:44.155Z,0
2016-12-20T12:54:05.775Z,0
2016-12-20T12:55:27.092Z,0
2016-12-20T12:56:48.695Z,0
2016-12-20T12:58:10.292Z,0
2016-12-20T12:59:31.892Z,0
2016-12-20T13:00:53.575Z,0
2016-12-20T13:02:15.095Z,0
2016-12-20T13:03:36.372Z,0
2016-12-20T13:04:58.169Z,0
2016-12-20T13:06:19.788Z,0
2016-12-20T13:07:41.404Z,0
2016-12-20T13:09:03.026Z,0
2016-12-20T13:10:25.015Z,0
2016-12-20T13:11:46.601Z,0
2016-12-20T13:13:08.179Z,0
2016-12-20T13:14:29.559Z,0
2016-12-20T13:15:50.907Z,0
2016-12-20T13:17:12.631Z,0
2016-12-20T13:18:34.245Z,0
2016-12-20T13:19:55.828Z,0
2016-12-20T13:21:17.111Z,0
2016-12-20T13:22:38.805Z,0
2016-12-20T13:24:00.390Z,0
2016-12-20T13:25:21.669Z,0
2016-12-20T13:26:42.939Z,0
2016-12-20T13:28:04.910Z,0
2016-12-20T13:29:26.853Z,0
2016-12-20T13:30:48.132Z,0
2016-12-20T13:32:09.753Z,0
2016-12-20T13:33:31.544Z,0
2016-12-20T13:34:53.238Z,0
2016-12-20T13:36:14.497Z,0
2016-12-20T13:37:35.787Z,0
2016-12-20T13:38:57.780Z,0
2016-12-20T13:40:19.071Z,0
2016-12-20T13:41:40.973Z,0
2016-12-20T13:43:02.566Z,0
2016-12-20T13:44:24.614Z,0
2016-12-20T13:45:45.948Z,0
2016-12-20T13:47:07.213Z,0
2016-12-20T13:48:29.214Z,0
2016-12-20T13:49:51.126Z,0
2016-12-20T13:51:12.739Z,0
2016-12-20T13:52:34.359Z,0
2016-12-20T13:53:55.979Z,0
2016-12-20T13:55:17.262Z,0
2016-12-20T13:56:38.865Z,0
2016-12-20T13:58:00.764Z,0
2016-12-20T13:59:22.667Z,0
2016-12-20T14:00:44.577Z,0
2016-12-20T14:02:06.495Z,0
2016-12-20T14:03:28.078Z,0
2016-12-20T14:04:49.984Z,0
2016-12-20T14:06:11.247Z,0
2016-12-20T14:07:32.517Z,0
2016-12-20T14:08:54.565Z,0
2016-12-20T14:10:16.461Z,0
2016-12-20T14:11:38.345Z,0
2016-12-20T14:13:00.150Z,0
2016-12-20T14:14:21.796Z,0
2016-12-20T14:15:43.821Z,0
2016-12-20T14:17:05.839Z,0
2016-12-20T14:18:27.796Z,0
2016-12-20T14:19:49.703Z,0
2016-12-20T14:21:11.609Z,0
2016-12-20T14:22:32.577Z,0
2016-12-20T14:23:54.705Z,0
2016-12-20T14:25:16.621Z,0
2016-12-20T14:26:38.557Z,0
2016-12-20T14:28:00.471Z,0
2016-12-20T14:29:22.353Z,0
2016-12-20T14:30:43.786Z,0
2016-12-20T14:32:05.235Z,0
2016-12-20T14:33:27.165Z,0
2016-12-20T14:34:49.091Z,0
2016-12-20T14:36:11.006Z,0
2016-12-20T14:37:32.597Z,0
2016-12-20T14:38:53.899Z,0
2016-12-20T14:40:15.569Z,0
2016-12-20T14:41:37.213Z,0
2016-12-20T14:42:58.811Z,0
2016-12-20T14:44:20.725Z,0
2016-12-20T14:45:42.603Z,0
2016-12-20T14:47:03.882Z,0
2016-12-20T14:48:25.803Z,0
2016-12-20T14:49:47.424Z,0
2016-12-20T14:51:08.691Z,0
2016-12-20T14:52:30.865Z,0
2016-12-20T14:53:52.450Z,0
2016-12-20T14:55:14.032Z,0
2016-12-20T14:56:35.565Z,0
2016-12-20T14:57:57.243Z,0
2016-12-20T14:59:19.252Z,0
2016-12-20T15:00:40.261Z,0
2016-12-20T15:02:01.602Z,0
2016-12-20T15:03:22.878Z,0
2016-12-20T15:04:44.707Z,0
2016-12-20T15:06:06.624Z,0
2016-12-20T15:07:28.222Z,0
2016-12-20T15:08:49.942Z,0
2016-12-20T15:10:11.699Z,0
2016-12-20T15:11:34.127Z,0
2016-12-20T15:12:55.618Z,0
2016-12-20T15:14:17.278Z,0
2016-12-20T15:15:39.192Z,0
2016-12-20T15:17:01.374Z,0
2016-12-20T15:18:22.969Z,0
2016-12-20T15:19:44.882Z,0
2016-12-20T15:21:06.767Z,0
2016-12-20T15:22:28.360Z,0
2016-12-20T15:23:50.435Z,0
2016-12-20T15:25:11.838Z,0
2016-12-20T15:26:33.736Z,0
2016-12-20T15:27:55.549Z,0
2016-12-20T15:29:17.269Z,0
2016-12-20T15:30:39.209Z,0
2016-12-20T15:32:01.291Z,0
2016-12-20T15:33:23.221Z,0
2016-12-20T15:34:44.972Z,0
2016-12-20T15:36:06.235Z,0
2016-12-20T15:37:27.814Z,0
2016-12-20T15:38:49.236Z,0
2016-12-20T15:40:11.491Z,0
2016-12-20T15:41:33.523Z,0
2016-12-20T15:42:55.412Z,0
2016-12-20T15:44:17.306Z,0
2016-12-20T15:45:38.891Z,0
2016-12-20T15:47:00.781Z,0
2016-12-20T15:48:22.674Z,0
2016-12-20T15:49:44.067Z,0
2016-12-20T15:51:06.018Z,0
2016-12-20T15:52:27.896Z,0
2016-12-20T15:53:49.806Z,0
2016-12-20T15:55:11.091Z,0
2016-12-20T15:56:32.993Z,0
2016-12-20T15:57:54.571Z,0
2016-12-20T15:59:16.416Z,0
2016-12-20T16:00:38.321Z,0
2016-12-20T16:01:59.905Z,0
2016-12-20T16:03:21.490Z,0
2016-12-20T16:04:42.789Z,0
2016-12-20T16:06:04.378Z,0
2016-12-20T16:07:25.763Z,0
2016-12-20T16:08:47.351Z,0
2016-12-20T16:10:09.282Z,0
2016-12-20T16:11:31.199Z,0
2016-12-20T16:12:53.103Z,0
2016-12-20T16:14:14.731Z,0
2016-12-20T16:15:36.660Z,0
2016-12-20T16:16:58.593Z,0
2016-12-20T16:18:20.663Z,0
2016-12-20T16:19:42.434Z,0
2016-12-20T16:21:04.373Z,0
2016-12-20T16:22:26.279Z,0
2016-12-20T16:23:48.216Z,0
2016-12-20T16:25:09.866Z,0
2016-12-20T16:26:31.838Z,0
2016-12-20T16:27:53.754Z,0
2016-12-20T16:29:15.551Z,0
2016-12-20T16:30:37.566Z,0
2016-12-20T16:31:59.165Z,0
2016-12-20T16:33:20.578Z,0
2016-12-20T16:34:42.606Z,0
2016-12-20T16:36:04.534Z,0
2016-12-20T16:37:26.287Z,0
2016-12-20T16:38:48.264Z,0
2016-12-20T16:40:09.964Z,0
2016-12-20T16:41:31.714Z,0
2016-12-20T16:42:53.303Z,0
2016-12-20T16:44:15.221Z,0
2016-12-20T16:45:37.153Z,0
2016-12-20T16:46:59.198Z,0
2016-12-20T16:48:20.814Z,0
2016-12-20T16:49:42.774Z,0
2016-12-20T16:51:04.671Z,0
2016-12-20T16:52:26.607Z,0
2016-12-20T16:53:47.893Z,0
2016-12-20T16:55:09.803Z,0
2016-12-20T16:56:32.213Z,0
2016-12-20T16:57:54.256Z,0
2016-12-20T16:59:16.344Z,0
2016-12-20T17:00:37.953Z,0
2016-12-20T17:01:59.607Z,0
2016-12-20T17:03:21.571Z,0
2016-12-20T17:04:43.248Z,0
2016-12-20T17:06:04.934Z,0
2016-12-20T17:07:26.539Z,0
2016-12-20T17:08:48.283Z,0
2016-12-20T17:10:10.216Z,0
2016-12-20T17:11:31.516Z,0
2016-12-20T17:12:53.417Z,0
2016-12-20T17:14:15.136Z,0
2016-12-20T17:15:37.096Z,0
2016-12-20T17:16:58.375Z,0
2016-12-20T17:18:19.353Z,0
2016-12-20T17:19:41.268Z,0
2016-12-20T17:21:02.537Z,0
2016-12-20T17:22:24.174Z,0
2016-12-20T17:23:46.102Z,0
2016-12-20T17:25:08.326Z,0
2016-12-20T17:26:30.237Z,0
2016-12-20T17:27:51.829Z,0
2016-12-20T17:29:13.721Z,0
2016-12-20T17:30:16.896Z,0
2016-12-20T17:31:38.479Z,0
2016-12-20T17:34:09.765Z,42.02
2016-12-20T17:35:32.223Z,40.11
2016-12-20T17:35:49.774Z,39.64
2016-12-20T17:37:11.257Z,39.16
2016-12-20T17:38:33.677Z,39.36
2016-12-20T17:39:55.799Z,39.45
2016-12-20T17:45:57.178Z,39.45
2016-12-20T17:47:19.644Z,39.64
2016-12-20T17:48:34.856Z,39.84
2016-12-20T17:49:38.388Z,39.54
2016-12-20T17:50:27.127Z,39.84
2016-12-20T17:58:59.627Z,39.45
2016-12-20T18:00:00.016Z,39.26
2016-12-20T18:01:14.959Z,39.36
2016-12-20T18:02:15.352Z,39.26
2016-12-20T18:05:11.891Z,39.36
2016-12-20T18:06:11.940Z,39.54
2016-12-20T19:31:15.324Z,36.96
2016-12-20T19:32:15.687Z,37.63
2016-12-20T19:33:15.745Z,37.93
2016-12-20T19:35:29.480Z,39.36
2016-12-20T19:36:29.551Z,40.11